sensor_id;sensor_type;location;lat;lon;timestamp;P1;durP1;ratioP1;P2;durP2;ratioP2
19727;SDS011;10015;52.530;13.390;2024-02-26T00:01:53;16.67;;;7.80;;
19727;SDS011;10015;52.530;13.390;2024-02-26T00:04:19;16.90;;;8.03;;
19727;SDS011;10015;52.530;13.390;2024-02-26T00:06:47;15.90;;;7.37;;
19727;SDS011;10015;52.530;13.390;2024-02-26T00:09:15;18.23;;;7.83;;
19727;SDS011;10015;52.530;13.390;2024-02-26T00:11:41;20.40;;;8.33;;
19727;SDS011;10015;52.530;13.390;2024-02-26T00:14:06;18.80;;;8.70;;
19727;SDS011;10015;52.530;13.390;2024-02-26T00:16:32;19.13;;;8.70;;
19727;SDS011;10015;52.530;13.390;2024-02-26T00:18:58;17.93;;;8.00;;
19727;SDS011;10015;52.530;13.390;2024-02-26T00:21:24;19.30;;;8.37;;
19727;SDS011;10015;52.530;13.390;2024-02-26T00:23:50;16.33;;;8.20;;
19727;SDS011;10015;52.530;13.390;2024-02-26T00:26:20;17.87;;;8.60;;
19727;SDS011;10015;52.530;13.390;2024-02-26T00:28:46;17.53;;;8.50;;
19727;SDS011;10015;52.530;13.390;2024-02-26T00:31:12;14.17;;;7.90;;
19727;SDS011;10015;52.530;13.390;2024-02-26T00:33:38;16.93;;;7.53;;
19727;SDS011;10015;52.530;13.390;2024-02-26T00:36:04;16.83;;;7.77;;
19727;SDS011;10015;52.530;13.390;2024-02-26T00:38:31;14.43;;;7.63;;
19727;SDS011;10015;52.530;13.390;2024-02-26T00:40:57;14.90;;;8.20;;
19727;SDS011;10015;52.530;13.390;2024-02-26T00:43:23;15.43;;;7.90;;
19727;SDS011;10015;52.530;13.390;2024-02-26T00:45:49;16.27;;;8.30;;
19727;SDS011;10015;52.530;13.390;2024-02-26T00:48:15;11.57;;;7.10;;
19727;SDS011;10015;52.530;13.390;2024-02-26T00:50:41;12.03;;;7.70;;
19727;SDS011;10015;52.530;13.390;2024-02-26T00:53:07;13.17;;;7.30;;
19727;SDS011;10015;52.530;13.390;2024-02-26T00:55:33;15.00;;;7.23;;
19727;SDS011;10015;52.530;13.390;2024-02-26T00:57:59;15.60;;;8.03;;
19727;SDS011;10015;52.530;13.390;2024-02-26T01:00:25;16.07;;;7.83;;
19727;SDS011;10015;52.530;13.390;2024-02-26T01:02:51;14.43;;;7.43;;
19727;SDS011;10015;52.530;13.390;2024-02-26T01:05:17;15.70;;;8.03;;
19727;SDS011;10015;52.530;13.390;2024-02-26T01:07:43;17.73;;;8.53;;
19727;SDS011;10015;52.530;13.390;2024-02-26T01:10:09;17.33;;;8.40;;
19727;SDS011;10015;52.530;13.390;2024-02-26T01:12:35;14.70;;;8.07;;
19727;SDS011;10015;52.530;13.390;2024-02-26T01:15:02;16.93;;;7.93;;
19727;SDS011;10015;52.530;13.390;2024-02-26T01:17:28;15.13;;;8.27;;
19727;SDS011;10015;52.530;13.390;2024-02-26T01:19:54;17.17;;;8.13;;
19727;SDS011;10015;52.530;13.390;2024-02-26T01:22:20;15.63;;;7.40;;
19727;SDS011;10015;52.530;13.390;2024-02-26T01:24:46;14.13;;;7.27;;
19727;SDS011;10015;52.530;13.390;2024-02-26T01:27:12;12.43;;;6.50;;
19727;SDS011;10015;52.530;13.390;2024-02-26T01:29:41;9.10;;;5.67;;
19727;SDS011;10015;52.530;13.390;2024-02-26T01:32:07;9.70;;;5.67;;
19727;SDS011;10015;52.530;13.390;2024-02-26T01:34:33;12.00;;;6.10;;
19727;SDS011;10015;52.530;13.390;2024-02-26T01:36:59;19.23;;;7.37;;
19727;SDS011;10015;52.530;13.390;2024-02-26T01:39:26;11.37;;;6.30;;
19727;SDS011;10015;52.530;13.390;2024-02-26T01:41:54;16.87;;;7.13;;
19727;SDS011;10015;52.530;13.390;2024-02-26T01:44:20;12.33;;;6.30;;
19727;SDS011;10015;52.530;13.390;2024-02-26T01:46:47;11.27;;;6.37;;
19727;SDS011;10015;52.530;13.390;2024-02-26T01:49:13;13.10;;;6.33;;
19727;SDS011;10015;52.530;13.390;2024-02-26T01:51:41;10.63;;;6.30;;
19727;SDS011;10015;52.530;13.390;2024-02-26T01:54:08;10.10;;;6.43;;
19727;SDS011;10015;52.530;13.390;2024-02-26T01:56:35;13.67;;;7.03;;
19727;SDS011;10015;52.530;13.390;2024-02-26T01:59:03;12.40;;;6.57;;
19727;SDS011;10015;52.530;13.390;2024-02-26T02:01:31;13.37;;;6.23;;
19727;SDS011;10015;52.530;13.390;2024-02-26T02:03:59;18.07;;;6.33;;
19727;SDS011;10015;52.530;13.390;2024-02-26T02:06:26;15.87;;;6.67;;
19727;SDS011;10015;52.530;13.390;2024-02-26T02:08:56;11.50;;;6.27;;
19727;SDS011;10015;52.530;13.390;2024-02-26T02:11:22;14.07;;;6.73;;
19727;SDS011;10015;52.530;13.390;2024-02-26T02:13:48;13.80;;;6.60;;
19727;SDS011;10015;52.530;13.390;2024-02-26T02:16:14;13.33;;;6.60;;
19727;SDS011;10015;52.530;13.390;2024-02-26T02:18:40;13.67;;;7.27;;
19727;SDS011;10015;52.530;13.390;2024-02-26T02:21:06;14.90;;;6.87;;
19727;SDS011;10015;52.530;13.390;2024-02-26T02:23:32;15.83;;;7.37;;
19727;SDS011;10015;52.530;13.390;2024-02-26T02:25:58;13.83;;;6.73;;
19727;SDS011;10015;52.530;13.390;2024-02-26T02:28:25;15.60;;;6.93;;
19727;SDS011;10015;52.530;13.390;2024-02-26T02:30:52;11.53;;;6.20;;
19727;SDS011;10015;52.530;13.390;2024-02-26T02:33:19;10.57;;;5.83;;
19727;SDS011;10015;52.530;13.390;2024-02-26T02:35:45;10.67;;;5.90;;
19727;SDS011;10015;52.530;13.390;2024-02-26T02:38:11;11.47;;;6.10;;
19727;SDS011;10015;52.530;13.390;2024-02-26T02:40:37;11.87;;;5.97;;
19727;SDS011;10015;52.530;13.390;2024-02-26T02:43:03;9.37;;;5.30;;
19727;SDS011;10015;52.530;13.390;2024-02-26T02:45:30;10.20;;;5.73;;
19727;SDS011;10015;52.530;13.390;2024-02-26T02:47:56;9.33;;;5.40;;
19727;SDS011;10015;52.530;13.390;2024-02-26T02:50:22;9.10;;;5.37;;
19727;SDS011;10015;52.530;13.390;2024-02-26T02:52:48;11.03;;;6.03;;
19727;SDS011;10015;52.530;13.390;2024-02-26T02:55:15;10.80;;;5.57;;
19727;SDS011;10015;52.530;13.390;2024-02-26T02:57:41;7.90;;;4.70;;
19727;SDS011;10015;52.530;13.390;2024-02-26T03:00:11;7.97;;;4.40;;
19727;SDS011;10015;52.530;13.390;2024-02-26T03:02:38;8.57;;;4.10;;
19727;SDS011;10015;52.530;13.390;2024-02-26T03:05:04;7.67;;;4.53;;
19727;SDS011;10015;52.530;13.390;2024-02-26T03:07:30;6.20;;;4.20;;
19727;SDS011;10015;52.530;13.390;2024-02-26T03:09:56;7.37;;;4.23;;
19727;SDS011;10015;52.530;13.390;2024-02-26T03:12:23;6.53;;;4.13;;
19727;SDS011;10015;52.530;13.390;2024-02-26T03:14:49;7.20;;;3.97;;
19727;SDS011;10015;52.530;13.390;2024-02-26T03:17:15;5.83;;;3.90;;
19727;SDS011;10015;52.530;13.390;2024-02-26T03:19:41;7.60;;;4.27;;
19727;SDS011;10015;52.530;13.390;2024-02-26T03:22:09;6.90;;;4.00;;
19727;SDS011;10015;52.530;13.390;2024-02-26T03:24:35;9.90;;;4.60;;
19727;SDS011;10015;52.530;13.390;2024-02-26T03:27:00;8.40;;;4.33;;
19727;SDS011;10015;52.530;13.390;2024-02-26T03:29:26;9.67;;;4.70;;
19727;SDS011;10015;52.530;13.390;2024-02-26T03:31:52;8.33;;;4.27;;
19727;SDS011;10015;52.530;13.390;2024-02-26T03:34:18;7.63;;;4.43;;
19727;SDS011;10015;52.530;13.390;2024-02-26T03:36:45;6.57;;;4.10;;
19727;SDS011;10015;52.530;13.390;2024-02-26T03:39:11;8.07;;;4.73;;
19727;SDS011;10015;52.530;13.390;2024-02-26T03:41:37;6.03;;;4.10;;
19727;SDS011;10015;52.530;13.390;2024-02-26T03:44:03;9.23;;;4.67;;
19727;SDS011;10015;52.530;13.390;2024-02-26T03:46:29;6.63;;;4.33;;
19727;SDS011;10015;52.530;13.390;2024-02-26T03:48:55;9.03;;;4.37;;
19727;SDS011;10015;52.530;13.390;2024-02-26T03:51:21;9.10;;;4.70;;
19727;SDS011;10015;52.530;13.390;2024-02-26T03:53:47;7.00;;;4.30;;
19727;SDS011;10015;52.530;13.390;2024-02-26T03:56:13;8.90;;;4.70;;
19727;SDS011;10015;52.530;13.390;2024-02-26T03:58:39;6.40;;;4.60;;
19727;SDS011;10015;52.530;13.390;2024-02-26T04:01:07;8.07;;;4.50;;
19727;SDS011;10015;52.530;13.390;2024-02-26T04:03:33;9.93;;;5.03;;
19727;SDS011;10015;52.530;13.390;2024-02-26T04:05:59;10.73;;;5.03;;
19727;SDS011;10015;52.530;13.390;2024-02-26T04:08:25;6.67;;;4.70;;
19727;SDS011;10015;52.530;13.390;2024-02-26T04:10:51;10.23;;;5.27;;
19727;SDS011;10015;52.530;13.390;2024-02-26T04:13:18;9.13;;;5.20;;
19727;SDS011;10015;52.530;13.390;2024-02-26T04:15:45;9.17;;;5.10;;
19727;SDS011;10015;52.530;13.390;2024-02-26T04:18:12;9.20;;;4.97;;
19727;SDS011;10015;52.530;13.390;2024-02-26T04:20:39;10.07;;;5.10;;
19727;SDS011;10015;52.530;13.390;2024-02-26T04:23:07;10.20;;;5.77;;
19727;SDS011;10015;52.530;13.390;2024-02-26T04:25:33;10.53;;;6.10;;
19727;SDS011;10015;52.530;13.390;2024-02-26T04:27:59;17.87;;;7.50;;
19727;SDS011;10015;52.530;13.390;2024-02-26T04:30:25;16.50;;;6.37;;
19727;SDS011;10015;52.530;13.390;2024-02-26T04:32:51;13.97;;;6.90;;
19727;SDS011;10015;52.530;13.390;2024-02-26T04:35:17;11.73;;;6.93;;
19727;SDS011;10015;52.530;13.390;2024-02-26T04:37:43;11.23;;;6.20;;
19727;SDS011;10015;52.530;13.390;2024-02-26T04:40:09;10.10;;;6.17;;
19727;SDS011;10015;52.530;13.390;2024-02-26T04:42:35;10.33;;;5.77;;
19727;SDS011;10015;52.530;13.390;2024-02-26T04:45:02;11.13;;;6.30;;
19727;SDS011;10015;52.530;13.390;2024-02-26T04:47:28;11.07;;;6.33;;
19727;SDS011;10015;52.530;13.390;2024-02-26T04:49:55;13.40;;;5.87;;
19727;SDS011;10015;52.530;13.390;2024-02-26T04:52:21;12.13;;;5.97;;
19727;SDS011;10015;52.530;13.390;2024-02-26T04:54:47;12.93;;;5.90;;
19727;SDS011;10015;52.530;13.390;2024-02-26T04:57:13;11.17;;;6.00;;
19727;SDS011;10015;52.530;13.390;2024-02-26T04:59:39;8.70;;;5.67;;
19727;SDS011;10015;52.530;13.390;2024-02-26T05:02:07;9.73;;;5.70;;
19727;SDS011;10015;52.530;13.390;2024-02-26T05:04:33;11.07;;;5.67;;
19727;SDS011;10015;52.530;13.390;2024-02-26T05:06:59;10.87;;;5.60;;
19727;SDS011;10015;52.530;13.390;2024-02-26T05:09:25;12.07;;;5.30;;
19727;SDS011;10015;52.530;13.390;2024-02-26T05:11:51;11.53;;;5.90;;
19727;SDS011;10015;52.530;13.390;2024-02-26T05:14:18;12.63;;;5.60;;
19727;SDS011;10015;52.530;13.390;2024-02-26T05:16:44;12.27;;;6.00;;
19727;SDS011;10015;52.530;13.390;2024-02-26T05:19:10;10.87;;;5.83;;
19727;SDS011;10015;52.530;13.390;2024-02-26T05:21:36;10.80;;;6.00;;
19727;SDS011;10015;52.530;13.390;2024-02-26T05:24:02;11.30;;;5.80;;
19727;SDS011;10015;52.530;13.390;2024-02-26T05:26:28;11.57;;;6.10;;
19727;SDS011;10015;52.530;13.390;2024-02-26T05:28:54;12.80;;;6.00;;
19727;SDS011;10015;52.530;13.390;2024-02-26T05:31:25;15.30;;;6.90;;
19727;SDS011;10015;52.530;13.390;2024-02-26T05:33:51;10.37;;;6.53;;
19727;SDS011;10015;52.530;13.390;2024-02-26T05:36:18;10.57;;;6.30;;
19727;SDS011;10015;52.530;13.390;2024-02-26T05:38:45;10.73;;;6.00;;
19727;SDS011;10015;52.530;13.390;2024-02-26T05:41:11;11.27;;;6.47;;
19727;SDS011;10015;52.530;13.390;2024-02-26T05:43:38;12.13;;;6.77;;
19727;SDS011;10015;52.530;13.390;2024-02-26T05:46:03;10.93;;;7.17;;
19727;SDS011;10015;52.530;13.390;2024-02-26T05:48:29;13.57;;;7.03;;
19727;SDS011;10015;52.530;13.390;2024-02-26T05:50:57;12.03;;;6.73;;
19727;SDS011;10015;52.530;13.390;2024-02-26T05:53:23;12.90;;;7.40;;
19727;SDS011;10015;52.530;13.390;2024-02-26T05:55:49;11.40;;;6.67;;
19727;SDS011;10015;52.530;13.390;2024-02-26T05:58:15;11.13;;;6.43;;
19727;SDS011;10015;52.530;13.390;2024-02-26T06:00:41;14.23;;;6.90;;
19727;SDS011;10015;52.530;13.390;2024-02-26T06:03:07;12.57;;;6.67;;
19727;SDS011;10015;52.530;13.390;2024-02-26T06:05:33;12.13;;;6.50;;
19727;SDS011;10015;52.530;13.390;2024-02-26T06:07:59;12.80;;;7.17;;
19727;SDS011;10015;52.530;13.390;2024-02-26T06:10:25;13.77;;;7.57;;
19727;SDS011;10015;52.530;13.390;2024-02-26T06:12:53;13.10;;;7.30;;
19727;SDS011;10015;52.530;13.390;2024-02-26T06:15:18;16.10;;;7.80;;
19727;SDS011;10015;52.530;13.390;2024-02-26T06:17:44;12.87;;;6.50;;
19727;SDS011;10015;52.530;13.390;2024-02-26T06:20:11;13.57;;;7.50;;
19727;SDS011;10015;52.530;13.390;2024-02-26T06:22:39;14.03;;;7.30;;
19727;SDS011;10015;52.530;13.390;2024-02-26T06:25:06;15.03;;;7.60;;
19727;SDS011;10015;52.530;13.390;2024-02-26T06:27:33;14.57;;;7.80;;
19727;SDS011;10015;52.530;13.390;2024-02-26T06:29:59;15.63;;;7.80;;
19727;SDS011;10015;52.530;13.390;2024-02-26T06:32:25;15.53;;;8.50;;
19727;SDS011;10015;52.530;13.390;2024-02-26T06:34:53;14.37;;;7.90;;
19727;SDS011;10015;52.530;13.390;2024-02-26T06:37:19;15.63;;;7.93;;
19727;SDS011;10015;52.530;13.390;2024-02-26T06:39:44;20.53;;;8.50;;
19727;SDS011;10015;52.530;13.390;2024-02-26T06:42:11;17.93;;;8.43;;
19727;SDS011;10015;52.530;13.390;2024-02-26T06:44:37;14.47;;;7.93;;
19727;SDS011;10015;52.530;13.390;2024-02-26T06:47:03;13.70;;;8.30;;
19727;SDS011;10015;52.530;13.390;2024-02-26T06:49:29;15.67;;;8.27;;
19727;SDS011;10015;52.530;13.390;2024-02-26T06:51:55;16.77;;;8.97;;
19727;SDS011;10015;52.530;13.390;2024-02-26T06:54:21;15.50;;;8.63;;
19727;SDS011;10015;52.530;13.390;2024-02-26T06:56:47;18.27;;;8.93;;
19727;SDS011;10015;52.530;13.390;2024-02-26T06:59:13;16.67;;;9.23;;
19727;SDS011;10015;52.530;13.390;2024-02-26T07:01:40;16.83;;;8.73;;
19727;SDS011;10015;52.530;13.390;2024-02-26T07:04:07;17.60;;;9.77;;
19727;SDS011;10015;52.530;13.390;2024-02-26T07:06:33;18.80;;;9.23;;
19727;SDS011;10015;52.530;13.390;2024-02-26T07:08:59;17.47;;;8.93;;
19727;SDS011;10015;52.530;13.390;2024-02-26T07:11:25;21.13;;;9.53;;
19727;SDS011;10015;52.530;13.390;2024-02-26T07:13:50;15.93;;;9.33;;
19727;SDS011;10015;52.530;13.390;2024-02-26T07:16:16;18.63;;;9.73;;
19727;SDS011;10015;52.530;13.390;2024-02-26T07:18:42;19.90;;;9.97;;
19727;SDS011;10015;52.530;13.390;2024-02-26T07:21:08;16.83;;;10.10;;
19727;SDS011;10015;52.530;13.390;2024-02-26T07:23:35;16.73;;;10.03;;
19727;SDS011;10015;52.530;13.390;2024-02-26T07:26:00;20.77;;;9.83;;
19727;SDS011;10015;52.530;13.390;2024-02-26T07:28:26;22.30;;;9.67;;
19727;SDS011;10015;52.530;13.390;2024-02-26T07:30:52;19.57;;;9.97;;
19727;SDS011;10015;52.530;13.390;2024-02-26T07:33:18;17.97;;;10.10;;
19727;SDS011;10015;52.530;13.390;2024-02-26T07:35:44;18.63;;;9.80;;
19727;SDS011;10015;52.530;13.390;2024-02-26T07:38:10;18.93;;;10.33;;
19727;SDS011;10015;52.530;13.390;2024-02-26T07:40:38;18.53;;;10.17;;
19727;SDS011;10015;52.530;13.390;2024-02-26T07:43:04;22.93;;;10.40;;
19727;SDS011;10015;52.530;13.390;2024-02-26T07:45:30;20.23;;;10.47;;
19727;SDS011;10015;52.530;13.390;2024-02-26T07:47:56;17.40;;;9.77;;
19727;SDS011;10015;52.530;13.390;2024-02-26T07:50:22;17.33;;;10.23;;
19727;SDS011;10015;52.530;13.390;2024-02-26T07:52:48;19.70;;;10.37;;
19727;SDS011;10015;52.530;13.390;2024-02-26T07:55:16;19.30;;;10.90;;
19727;SDS011;10015;52.530;13.390;2024-02-26T07:57:42;19.50;;;10.60;;
19727;SDS011;10015;52.530;13.390;2024-02-26T08:00:11;21.23;;;10.93;;
19727;SDS011;10015;52.530;13.390;2024-02-26T08:02:41;21.50;;;10.73;;
19727;SDS011;10015;52.530;13.390;2024-02-26T08:05:09;20.27;;;11.63;;
19727;SDS011;10015;52.530;13.390;2024-02-26T08:07:35;23.57;;;11.40;;
19727;SDS011;10015;52.530;13.390;2024-02-26T08:10:01;16.47;;;6.73;;
19727;SDS011;10015;52.530;13.390;2024-02-26T08:12:27;13.20;;;5.20;;
19727;SDS011;10015;52.530;13.390;2024-02-26T08:14:53;24.90;;;12.77;;
19727;SDS011;10015;52.530;13.390;2024-02-26T08:17:19;25.63;;;12.27;;
19727;SDS011;10015;52.530;13.390;2024-02-26T08:19:45;22.33;;;11.23;;
19727;SDS011;10015;52.530;13.390;2024-02-26T08:22:11;20.23;;;11.60;;
19727;SDS011;10015;52.530;13.390;2024-02-26T08:24:41;20.83;;;11.87;;
19727;SDS011;10015;52.530;13.390;2024-02-26T08:27:08;20.17;;;11.60;;
19727;SDS011;10015;52.530;13.390;2024-02-26T08:29:34;20.27;;;11.90;;
19727;SDS011;10015;52.530;13.390;2024-02-26T08:32:00;22.37;;;11.23;;
19727;SDS011;10015;52.530;13.390;2024-02-26T08:34:26;20.37;;;11.93;;
19727;SDS011;10015;52.530;13.390;2024-02-26T08:36:52;19.67;;;11.57;;
19727;SDS011;10015;52.530;13.390;2024-02-26T08:39:18;17.83;;;11.23;;
19727;SDS011;10015;52.530;13.390;2024-02-26T08:41:44;21.73;;;11.43;;
19727;SDS011;10015;52.530;13.390;2024-02-26T08:44:10;19.67;;;11.67;;
19727;SDS011;10015;52.530;13.390;2024-02-26T08:46:37;22.57;;;11.80;;
19727;SDS011;10015;52.530;13.390;2024-02-26T08:49:03;18.67;;;10.40;;
19727;SDS011;10015;52.530;13.390;2024-02-26T08:51:29;22.53;;;11.93;;
19727;SDS011;10015;52.530;13.390;2024-02-26T08:53:56;21.23;;;12.10;;
19727;SDS011;10015;52.530;13.390;2024-02-26T08:56:22;19.20;;;11.13;;
19727;SDS011;10015;52.530;13.390;2024-02-26T08:58:48;21.63;;;11.10;;
19727;SDS011;10015;52.530;13.390;2024-02-26T09:01:16;22.03;;;11.90;;
19727;SDS011;10015;52.530;13.390;2024-02-26T09:03:42;21.40;;;11.37;;
19727;SDS011;10015;52.530;13.390;2024-02-26T09:06:08;18.30;;;11.57;;
19727;SDS011;10015;52.530;13.390;2024-02-26T09:08:34;19.20;;;11.07;;
19727;SDS011;10015;52.530;13.390;2024-02-26T09:11:01;20.07;;;10.77;;
19727;SDS011;10015;52.530;13.390;2024-02-26T09:13:28;19.20;;;10.90;;
19727;SDS011;10015;52.530;13.390;2024-02-26T09:15:55;18.23;;;11.23;;
19727;SDS011;10015;52.530;13.390;2024-02-26T09:18:21;21.10;;;11.10;;
19727;SDS011;10015;52.530;13.390;2024-02-26T09:20:47;22.57;;;11.17;;
19727;SDS011;10015;52.530;13.390;2024-02-26T09:23:13;23.00;;;11.13;;
19727;SDS011;10015;52.530;13.390;2024-02-26T09:25:39;18.30;;;10.90;;
19727;SDS011;10015;52.530;13.390;2024-02-26T09:28:05;17.47;;;11.27;;
19727;SDS011;10015;52.530;13.390;2024-02-26T09:30:31;18.03;;;9.77;;
19727;SDS011;10015;52.530;13.390;2024-02-26T09:32:57;16.90;;;10.60;;
19727;SDS011;10015;52.530;13.390;2024-02-26T09:35:23;18.87;;;10.60;;
19727;SDS011;10015;52.530;13.390;2024-02-26T09:37:49;19.67;;;10.67;;
19727;SDS011;10015;52.530;13.390;2024-02-26T09:40:15;20.07;;;11.43;;
19727;SDS011;10015;52.530;13.390;2024-02-26T09:42:43;17.20;;;10.70;;
19727;SDS011;10015;52.530;13.390;2024-02-26T09:45:11;20.33;;;10.60;;
19727;SDS011;10015;52.530;13.390;2024-02-26T09:47:43;17.77;;;10.27;;
19727;SDS011;10015;52.530;13.390;2024-02-26T09:50:10;17.77;;;10.50;;
19727;SDS011;10015;52.530;13.390;2024-02-26T09:52:39;18.57;;;10.03;;
19727;SDS011;10015;52.530;13.390;2024-02-26T09:55:08;17.50;;;10.27;;
19727;SDS011;10015;52.530;13.390;2024-02-26T09:57:37;18.97;;;11.20;;
19727;SDS011;10015;52.530;13.390;2024-02-26T10:00:03;40.60;;;12.00;;
19727;SDS011;10015;52.530;13.390;2024-02-26T10:02:33;20.80;;;9.97;;
19727;SDS011;10015;52.530;13.390;2024-02-26T10:05:03;16.97;;;10.07;;
19727;SDS011;10015;52.530;13.390;2024-02-26T10:07:32;16.93;;;9.80;;
19727;SDS011;10015;52.530;13.390;2024-02-26T10:09:59;20.57;;;9.80;;
19727;SDS011;10015;52.530;13.390;2024-02-26T10:12:27;16.77;;;9.83;;
19727;SDS011;10015;52.530;13.390;2024-02-26T10:14:54;17.53;;;10.40;;
19727;SDS011;10015;52.530;13.390;2024-02-26T10:17:20;15.53;;;9.50;;
19727;SDS011;10015;52.530;13.390;2024-02-26T10:19:47;14.13;;;7.43;;
19727;SDS011;10015;52.530;13.390;2024-02-26T10:22:13;13.27;;;7.13;;
19727;SDS011;10015;52.530;13.390;2024-02-26T10:24:39;13.17;;;7.13;;
19727;SDS011;10015;52.530;13.390;2024-02-26T10:27:05;12.97;;;7.70;;
19727;SDS011;10015;52.530;13.390;2024-02-26T10:29:31;13.70;;;7.17;;
19727;SDS011;10015;52.530;13.390;2024-02-26T10:31:57;12.70;;;7.60;;
19727;SDS011;10015;52.530;13.390;2024-02-26T10:34:24;15.93;;;8.03;;
19727;SDS011;10015;52.530;13.390;2024-02-26T10:36:51;13.70;;;7.53;;
19727;SDS011;10015;52.530;13.390;2024-02-26T10:39:17;14.53;;;7.27;;
19727;SDS011;10015;52.530;13.390;2024-02-26T10:41:43;14.90;;;9.47;;
19727;SDS011;10015;52.530;13.390;2024-02-26T10:44:11;16.07;;;9.93;;
19727;SDS011;10015;52.530;13.390;2024-02-26T10:46:38;15.00;;;9.33;;
19727;SDS011;10015;52.530;13.390;2024-02-26T10:49:14;15.47;;;9.00;;
19727;SDS011;10015;52.530;13.390;2024-02-26T10:51:44;14.03;;;8.63;;
19727;SDS011;10015;52.530;13.390;2024-02-26T10:54:12;13.37;;;6.37;;
19727;SDS011;10015;52.530;13.390;2024-02-26T10:56:41;13.50;;;7.80;;
19727;SDS011;10015;52.530;13.390;2024-02-26T10:59:11;14.57;;;8.00;;
19727;SDS011;10015;52.530;13.390;2024-02-26T11:01:37;12.73;;;6.87;;
19727;SDS011;10015;52.530;13.390;2024-02-26T11:04:06;13.37;;;6.90;;
19727;SDS011;10015;52.530;13.390;2024-02-26T11:06:34;13.40;;;7.80;;
19727;SDS011;10015;52.530;13.390;2024-02-26T11:09:01;10.17;;;6.57;;
19727;SDS011;10015;52.530;13.390;2024-02-26T11:11:31;11.97;;;7.57;;
19727;SDS011;10015;52.530;13.390;2024-02-26T11:13:59;12.80;;;7.60;;
19727;SDS011;10015;52.530;13.390;2024-02-26T11:16:32;14.63;;;8.50;;
19727;SDS011;10015;52.530;13.390;2024-02-26T11:19:02;15.57;;;8.80;;
19727;SDS011;10015;52.530;13.390;2024-02-26T11:21:28;12.63;;;8.33;;
19727;SDS011;10015;52.530;13.390;2024-02-26T11:24:07;15.37;;;7.80;;
19727;SDS011;10015;52.530;13.390;2024-02-26T11:26:37;13.00;;;7.47;;
19727;SDS011;10015;52.530;13.390;2024-02-26T11:29:11;14.33;;;8.67;;
19727;SDS011;10015;52.530;13.390;2024-02-26T11:31:42;11.60;;;6.97;;
19727;SDS011;10015;52.530;13.390;2024-02-26T11:34:09;13.90;;;7.77;;
19727;SDS011;10015;52.530;13.390;2024-02-26T11:36:36;10.60;;;6.27;;
19727;SDS011;10015;52.530;13.390;2024-02-26T11:39:08;14.07;;;7.07;;
19727;SDS011;10015;52.530;13.390;2024-02-26T11:42:04;10.27;;;5.40;;
19727;SDS011;10015;52.530;13.390;2024-02-26T11:44:51;8.93;;;5.60;;
19727;SDS011;10015;52.530;13.390;2024-02-26T11:56:34;8.37;;;5.57;;
19727;SDS011;10015;52.530;13.390;2024-02-26T11:58:53;9.70;;;6.13;;
19727;SDS011;10015;52.530;13.390;2024-02-26T12:04:12;13.83;;;8.40;;
19727;SDS011;10015;52.530;13.390;2024-02-26T12:06:43;16.60;;;8.77;;
19727;SDS011;10015;52.530;13.390;2024-02-26T12:09:30;14.90;;;9.53;;
19727;SDS011;10015;52.530;13.390;2024-02-26T12:12:04;17.90;;;10.20;;
19727;SDS011;10015;52.530;13.390;2024-02-26T12:14:38;13.57;;;9.50;;
19727;SDS011;10015;52.530;13.390;2024-02-26T12:17:07;16.43;;;9.17;;
19727;SDS011;10015;52.530;13.390;2024-02-26T12:19:44;18.67;;;10.37;;
19727;SDS011;10015;52.530;13.390;2024-02-26T12:22:12;15.67;;;10.00;;
19727;SDS011;10015;52.530;13.390;2024-02-26T12:24:40;14.83;;;9.60;;
19727;SDS011;10015;52.530;13.390;2024-02-26T12:27:14;17.70;;;10.43;;
19727;SDS011;10015;52.530;13.390;2024-02-26T12:29:42;15.57;;;9.00;;
19727;SDS011;10015;52.530;13.390;2024-02-26T12:32:08;17.13;;;8.83;;
19727;SDS011;10015;52.530;13.390;2024-02-26T12:34:37;16.13;;;9.80;;
19727;SDS011;10015;52.530;13.390;2024-02-26T12:37:09;20.63;;;10.43;;
19727;SDS011;10015;52.530;13.390;2024-02-26T12:40:05;19.10;;;9.57;;
19727;SDS011;10015;52.530;13.390;2024-02-26T12:42:41;18.03;;;9.73;;
19727;SDS011;10015;52.530;13.390;2024-02-26T12:45:17;14.77;;;9.03;;
19727;SDS011;10015;52.530;13.390;2024-02-26T12:47:51;14.03;;;8.77;;
19727;SDS011;10015;52.530;13.390;2024-02-26T12:50:20;16.53;;;8.63;;
19727;SDS011;10015;52.530;13.390;2024-02-26T12:52:46;14.87;;;8.13;;
19727;SDS011;10015;52.530;13.390;2024-02-26T12:55:21;14.03;;;7.67;;
19727;SDS011;10015;52.530;13.390;2024-02-26T12:57:47;12.60;;;7.27;;
19727;SDS011;10015;52.530;13.390;2024-02-26T13:00:16;12.00;;;6.80;;
19727;SDS011;10015;52.530;13.390;2024-02-26T13:02:47;12.97;;;6.40;;
19727;SDS011;10015;52.530;13.390;2024-02-26T13:05:16;14.20;;;6.80;;
19727;SDS011;10015;52.530;13.390;2024-02-26T13:07:45;10.57;;;5.97;;
19727;SDS011;10015;52.530;13.390;2024-02-26T13:10:12;9.57;;;5.47;;
19727;SDS011;10015;52.530;13.390;2024-02-26T13:12:42;9.43;;;6.00;;
19727;SDS011;10015;52.530;13.390;2024-02-26T13:15:13;13.00;;;6.10;;
19727;SDS011;10015;52.530;13.390;2024-02-26T13:17:44;13.17;;;6.47;;
19727;SDS011;10015;52.530;13.390;2024-02-26T13:20:12;10.70;;;5.37;;
19727;SDS011;10015;52.530;13.390;2024-02-26T13:22:50;9.17;;;5.40;;
19727;SDS011;10015;52.530;13.390;2024-02-26T13:25:20;13.47;;;5.80;;
19727;SDS011;10015;52.530;13.390;2024-02-26T13:27:46;9.13;;;5.23;;
19727;SDS011;10015;52.530;13.390;2024-02-26T13:30:12;9.40;;;5.27;;
19727;SDS011;10015;52.530;13.390;2024-02-26T13:32:40;10.07;;;5.40;;
19727;SDS011;10015;52.530;13.390;2024-02-26T13:37:36;6.70;;;4.30;;
19727;SDS011;10015;52.530;13.390;2024-02-26T13:40:07;8.23;;;3.83;;
19727;SDS011;10015;52.530;13.390;2024-02-26T13:42:35;5.93;;;3.90;;
19727;SDS011;10015;52.530;13.390;2024-02-26T13:45:02;11.87;;;4.50;;
19727;SDS011;10015;52.530;13.390;2024-02-26T13:47:35;7.27;;;3.97;;
19727;SDS011;10015;52.530;13.390;2024-02-26T13:50:01;6.23;;;3.80;;
19727;SDS011;10015;52.530;13.390;2024-02-26T13:52:27;6.60;;;3.57;;
19727;SDS011;10015;52.530;13.390;2024-02-26T13:54:54;7.27;;;4.00;;
19727;SDS011;10015;52.530;13.390;2024-02-26T13:57:21;8.50;;;3.73;;
19727;SDS011;10015;52.530;13.390;2024-02-26T13:59:48;5.67;;;3.60;;
19727;SDS011;10015;52.530;13.390;2024-02-26T14:02:15;5.70;;;3.20;;
19727;SDS011;10015;52.530;13.390;2024-02-26T14:04:42;13.83;;;8.50;;
19727;SDS011;10015;52.530;13.390;2024-02-26T14:07:08;10.77;;;4.80;;
19727;SDS011;10015;52.530;13.390;2024-02-26T14:09:37;9.70;;;5.80;;
19727;SDS011;10015;52.530;13.390;2024-02-26T14:12:03;9.57;;;3.80;;
19727;SDS011;10015;52.530;13.390;2024-02-26T14:14:30;6.20;;;3.50;;
19727;SDS011;10015;52.530;13.390;2024-02-26T14:17:01;6.10;;;3.50;;
19727;SDS011;10015;52.530;13.390;2024-02-26T14:19:28;6.23;;;3.37;;
19727;SDS011;10015;52.530;13.390;2024-02-26T14:21:54;7.73;;;3.83;;
19727;SDS011;10015;52.530;13.390;2024-02-26T14:24:21;8.80;;;3.83;;
19727;SDS011;10015;52.530;13.390;2024-02-26T14:26:47;8.13;;;3.70;;
19727;SDS011;10015;52.530;13.390;2024-02-26T14:29:13;7.40;;;3.97;;
19727;SDS011;10015;52.530;13.390;2024-02-26T14:31:40;10.37;;;4.83;;
19727;SDS011;10015;52.530;13.390;2024-02-26T14:34:05;12.43;;;4.53;;
19727;SDS011;10015;52.530;13.390;2024-02-26T14:36:33;9.37;;;4.40;;